sensor_id;sensor_type;location;lat;lon;timestamp;temperature;humidity
20512;DHT22;10414;52.074;5.126;2022-10-22T00:01:08;15.70;99.90
20512;DHT22;10414;52.074;5.126;2022-10-22T00:03:35;15.60;99.90
20512;DHT22;10414;52.074;5.126;2022-10-22T00:06:03;15.70;99.90
20512;DHT22;10414;52.074;5.126;2022-10-22T00:08:31;15.60;99.90
20512;DHT22;10414;52.074;5.126;2022-10-22T00:10:58;15.50;99.90
20512;DHT22;10414;52.074;5.126;2022-10-22T00:13:25;15.30;99.90
20512;DHT22;10414;52.074;5.126;2022-10-22T00:15:52;15.30;99.90
20512;DHT22;10414;52.074;5.126;2022-10-22T00:18:19;15.30;99.90
20512;DHT22;10414;52.074;5.126;2022-10-22T00:20:46;15.40;99.90
20512;DHT22;10414;52.074;5.126;2022-10-22T00:23:13;15.30;99.90
20512;DHT22;10414;52.074;5.126;2022-10-22T00:25:41;15.40;99.90
20512;DHT22;10414;52.074;5.126;2022-10-22T00:28:08;15.50;99.90
20512;DHT22;10414;52.074;5.126;2022-10-22T00:30:36;15.60;99.90
20512;DHT22;10414;52.074;5.126;2022-10-22T00:33:02;15.60;99.90
20512;DHT22;10414;52.074;5.126;2022-10-22T00:35:29;15.80;99.90
20512;DHT22;10414;52.074;5.126;2022-10-22T00:37:56;15.80;99.90
20512;DHT22;10414;52.074;5.126;2022-10-22T00:40:23;15.70;99.90
20512;DHT22;10414;52.074;5.126;2022-10-22T00:42:52;15.80;99.90
20512;DHT22;10414;52.074;5.126;2022-10-22T00:45:21;15.70;99.90
20512;DHT22;10414;52.074;5.126;2022-10-22T00:47:51;15.60;99.90
20512;DHT22;10414;52.074;5.126;2022-10-22T00:50:23;15.70;99.90
20512;DHT22;10414;52.074;5.126;2022-10-22T00:52:53;15.60;99.90
20512;DHT22;10414;52.074;5.126;2022-10-22T00:55:21;15.70;99.90
20512;DHT22;10414;52.074;5.126;2022-10-22T00:57:51;15.70;99.90
20512;DHT22;10414;52.074;5.126;2022-10-22T01:00:19;15.50;99.90
20512;DHT22;10414;52.074;5.126;2022-10-22T01:02:47;15.50;99.90
20512;DHT22;10414;52.074;5.126;2022-10-22T01:05:15;15.40;99.90
20512;DHT22;10414;52.074;5.126;2022-10-22T01:07:46;15.30;99.90
20512;DHT22;10414;52.074;5.126;2022-10-22T01:10:28;15.40;99.90
20512;DHT22;10414;52.074;5.126;2022-10-22T01:13:10;15.40;99.90
20512;DHT22;10414;52.074;5.126;2022-10-22T01:15:44;15.40;99.90
20512;DHT22;10414;52.074;5.126;2022-10-22T01:18:18;15.40;99.90
20512;DHT22;10414;52.074;5.126;2022-10-22T01:21:06;15.50;99.90
20512;DHT22;10414;52.074;5.126;2022-10-22T01:26:59;15.40;99.90
20512;DHT22;10414;52.074;5.126;2022-10-22T01:29:33;15.50;99.90
20512;DHT22;10414;52.074;5.126;2022-10-22T01:32:07;15.60;99.90
20512;DHT22;10414;52.074;5.126;2022-10-22T01:34:37;15.50;99.90
20512;DHT22;10414;52.074;5.126;2022-10-22T01:37:07;15.50;99.90
20512;DHT22;10414;52.074;5.126;2022-10-22T01:39:35;15.60;99.90
20512;DHT22;10414;52.074;5.126;2022-10-22T01:42:04;15.50;99.90
20512;DHT22;10414;52.074;5.126;2022-10-22T01:44:33;15.60;99.90
20512;DHT22;10414;52.074;5.126;2022-10-22T01:47:09;15.70;99.90
20512;DHT22;10414;52.074;5.126;2022-10-22T01:52:41;15.70;99.90
20512;DHT22;10414;52.074;5.126;2022-10-22T01:55:21;15.50;99.90
20512;DHT22;10414;52.074;5.126;2022-10-22T01:58:00;15.60;99.90
20512;DHT22;10414;52.074;5.126;2022-10-22T02:00:36;15.50;99.90
20512;DHT22;10414;52.074;5.126;2022-10-22T02:03:08;15.50;99.90
20512;DHT22;10414;52.074;5.126;2022-10-22T02:05:39;15.50;99.90
20512;DHT22;10414;52.074;5.126;2022-10-22T02:08:09;15.50;99.90
20512;DHT22;10414;52.074;5.126;2022-10-22T02:10:39;15.50;99.90
20512;DHT22;10414;52.074;5.126;2022-10-22T02:13:08;15.40;99.90
20512;DHT22;10414;52.074;5.126;2022-10-22T02:15:40;15.40;99.90
20512;DHT22;10414;52.074;5.126;2022-10-22T02:18:09;15.30;99.90
20512;DHT22;10414;52.074;5.126;2022-10-22T02:20:38;15.20;99.90
20512;DHT22;10414;52.074;5.126;2022-10-22T02:23:07;15.10;99.90
20512;DHT22;10414;52.074;5.126;2022-10-22T02:25:37;15.00;99.90
20512;DHT22;10414;52.074;5.126;2022-10-22T02:28:11;15.00;99.90
20512;DHT22;10414;52.074;5.126;2022-10-22T02:30:43;14.90;99.90
20512;DHT22;10414;52.074;5.126;2022-10-22T02:33:15;14.90;99.90
20512;DHT22;10414;52.074;5.126;2022-10-22T02:35:44;14.80;99.90
20512;DHT22;10414;52.074;5.126;2022-10-22T02:38:13;14.80;99.90
20512;DHT22;10414;52.074;5.126;2022-10-22T02:40:40;14.80;99.90
20512;DHT22;10414;52.074;5.126;2022-10-22T02:43:07;14.80;99.90
20512;DHT22;10414;52.074;5.126;2022-10-22T02:45:34;14.90;99.90
20512;DHT22;10414;52.074;5.126;2022-10-22T02:48:03;14.80;99.90
20512;DHT22;10414;52.074;5.126;2022-10-22T02:50:30;14.80;99.90
20512;DHT22;10414;52.074;5.126;2022-10-22T02:52:57;14.70;99.90
20512;DHT22;10414;52.074;5.126;2022-10-22T02:55:24;14.70;99.90
20512;DHT22;10414;52.074;5.126;2022-10-22T02:57:51;14.80;99.90
20512;DHT22;10414;52.074;5.126;2022-10-22T03:00:18;14.80;99.90
20512;DHT22;10414;52.074;5.126;2022-10-22T03:02:45;14.90;99.90
20512;DHT22;10414;52.074;5.126;2022-10-22T03:05:13;14.90;99.90
20512;DHT22;10414;52.074;5.126;2022-10-22T03:07:40;15.00;99.90
20512;DHT22;10414;52.074;5.126;2022-10-22T03:10:07;14.90;99.90
20512;DHT22;10414;52.074;5.126;2022-10-22T03:12:34;14.90;99.90
20512;DHT22;10414;52.074;5.126;2022-10-22T03:15:01;14.90;99.90
20512;DHT22;10414;52.074;5.126;2022-10-22T03:17:28;14.80;99.90
20512;DHT22;10414;52.074;5.126;2022-10-22T03:19:55;14.70;99.90
20512;DHT22;10414;52.074;5.126;2022-10-22T03:22:26;14.70;99.90
20512;DHT22;10414;52.074;5.126;2022-10-22T03:24:56;14.70;99.90
20512;DHT22;10414;52.074;5.126;2022-10-22T03:27:25;14.70;99.90
20512;DHT22;10414;52.074;5.126;2022-10-22T03:29:52;14.70;99.90
20512;DHT22;10414;52.074;5.126;2022-10-22T03:32:20;14.80;99.90
20512;DHT22;10414;52.074;5.126;2022-10-22T03:34:47;14.70;99.90
20512;DHT22;10414;52.074;5.126;2022-10-22T03:37:14;14.60;99.90
20512;DHT22;10414;52.074;5.126;2022-10-22T03:39:42;14.70;99.90
20512;DHT22;10414;52.074;5.126;2022-10-22T03:42:09;14.70;99.90
20512;DHT22;10414;52.074;5.126;2022-10-22T03:44:38;14.70;99.90
20512;DHT22;10414;52.074;5.126;2022-10-22T03:47:06;14.70;99.90
20512;DHT22;10414;52.074;5.126;2022-10-22T03:49:33;14.60;99.90
20512;DHT22;10414;52.074;5.126;2022-10-22T03:52:05;14.60;99.90
20512;DHT22;10414;52.074;5.126;2022-10-22T03:54:31;14.50;99.90
20512;DHT22;10414;52.074;5.126;2022-10-22T03:57:00;14.40;99.90
20512;DHT22;10414;52.074;5.126;2022-10-22T03:59:27;14.40;99.90
20512;DHT22;10414;52.074;5.126;2022-10-22T04:01:54;14.40;99.90
20512;DHT22;10414;52.074;5.126;2022-10-22T04:04:21;14.40;99.90
20512;DHT22;10414;52.074;5.126;2022-10-22T04:06:48;14.20;99.90
20512;DHT22;10414;52.074;5.126;2022-10-22T04:09:14;14.30;99.90
20512;DHT22;10414;52.074;5.126;2022-10-22T04:11:41;14.20;99.90
20512;DHT22;10414;52.074;5.126;2022-10-22T04:14:10;14.40;99.90
20512;DHT22;10414;52.074;5.126;2022-10-22T04:16:38;14.20;99.90
20512;DHT22;10414;52.074;5.126;2022-10-22T04:19:06;14.30;99.90
20512;DHT22;10414;52.074;5.126;2022-10-22T04:21:33;14.30;99.90
20512;DHT22;10414;52.074;5.126;2022-10-22T04:24:00;14.30;99.90
20512;DHT22;10414;52.074;5.126;2022-10-22T04:26:27;14.30;99.90
20512;DHT22;10414;52.074;5.126;2022-10-22T04:28:54;14.30;99.90
20512;DHT22;10414;52.074;5.126;2022-10-22T04:31:24;14.40;99.90
20512;DHT22;10414;52.074;5.126;2022-10-22T04:33:52;14.40;99.90
20512;DHT22;10414;52.074;5.126;2022-10-22T04:36:20;14.40;99.90
20512;DHT22;10414;52.074;5.126;2022-10-22T04:38:51;14.40;99.90
20512;DHT22;10414;52.074;5.126;2022-10-22T04:41:21;14.40;99.90
20512;DHT22;10414;52.074;5.126;2022-10-22T04:43:48;14.50;99.90
20512;DHT22;10414;52.074;5.126;2022-10-22T04:46:16;14.60;99.90
20512;DHT22;10414;52.074;5.126;2022-10-22T04:48:45;14.40;99.90
20512;DHT22;10414;52.074;5.126;2022-10-22T04:51:14;14.40;99.90
20512;DHT22;10414;52.074;5.126;2022-10-22T04:53:42;14.40;99.90
20512;DHT22;10414;52.074;5.126;2022-10-22T04:56:10;14.40;99.90
20512;DHT22;10414;52.074;5.126;2022-10-22T04:58:38;14.50;99.90
20512;DHT22;10414;52.074;5.126;2022-10-22T05:01:10;14.50;99.90
20512;DHT22;10414;52.074;5.126;2022-10-22T05:03:37;14.50;99.90
20512;DHT22;10414;52.074;5.126;2022-10-22T05:06:06;14.60;99.90
20512;DHT22;10414;52.074;5.126;2022-10-22T05:08:33;14.60;99.90
20512;DHT22;10414;52.074;5.126;2022-10-22T05:11:00;14.60;99.90
20512;DHT22;10414;52.074;5.126;2022-10-22T05:13:27;14.50;99.90
20512;DHT22;10414;52.074;5.126;2022-10-22T05:15:55;14.40;99.90
20512;DHT22;10414;52.074;5.126;2022-10-22T05:18:22;14.40;99.90
20512;DHT22;10414;52.074;5.126;2022-10-22T05:20:48;14.40;99.90
20512;DHT22;10414;52.074;5.126;2022-10-22T05:23:16;14.40;99.90
20512;DHT22;10414;52.074;5.126;2022-10-22T05:25:44;14.40;99.90
20512;DHT22;10414;52.074;5.126;2022-10-22T05:28:11;14.40;99.90
20512;DHT22;10414;52.074;5.126;2022-10-22T05:30:37;14.40;99.90
20512;DHT22;10414;52.074;5.126;2022-10-22T05:33:04;14.30;99.90
20512;DHT22;10414;52.074;5.126;2022-10-22T05:35:31;14.30;99.90
20512;DHT22;10414;52.074;5.126;2022-10-22T05:37:58;14.30;99.90
20512;DHT22;10414;52.074;5.126;2022-10-22T05:40:26;14.30;99.90
20512;DHT22;10414;52.074;5.126;2022-10-22T05:42:53;14.30;99.90
20512;DHT22;10414;52.074;5.126;2022-10-22T05:45:20;14.30;99.90
20512;DHT22;10414;52.074;5.126;2022-10-22T05:47:47;14.30;99.90
20512;DHT22;10414;52.074;5.126;2022-10-22T05:50:14;14.30;99.90
20512;DHT22;10414;52.074;5.126;2022-10-22T05:52:40;14.30;99.90
20512;DHT22;10414;52.074;5.126;2022-10-22T05:55:07;14.20;99.90
20512;DHT22;10414;52.074;5.126;2022-10-22T05:57:36;14.30;99.90
20512;DHT22;10414;52.074;5.126;2022-10-22T06:00:03;14.30;99.90
20512;DHT22;10414;52.074;5.126;2022-10-22T06:02:30;14.30;99.90
20512;DHT22;10414;52.074;5.126;2022-10-22T06:04:57;14.30;99.90
20512;DHT22;10414;52.074;5.126;2022-10-22T06:07:24;14.30;99.90
20512;DHT22;10414;52.074;5.126;2022-10-22T06:09:51;14.20;99.90
20512;DHT22;10414;52.074;5.126;2022-10-22T06:12:19;14.30;99.90
20512;DHT22;10414;52.074;5.126;2022-10-22T06:14:47;14.30;99.90
20512;DHT22;10414;52.074;5.126;2022-10-22T06:17:14;14.20;99.90
20512;DHT22;10414;52.074;5.126;2022-10-22T06:19:41;14.30;99.90
20512;DHT22;10414;52.074;5.126;2022-10-22T06:22:08;14.30;99.90
20512;DHT22;10414;52.074;5.126;2022-10-22T06:24:35;14.40;99.90
20512;DHT22;10414;52.074;5.126;2022-10-22T06:27:02;14.40;99.90
20512;DHT22;10414;52.074;5.126;2022-10-22T06:29:29;14.50;99.90
20512;DHT22;10414;52.074;5.126;2022-10-22T06:31:57;14.50;99.90
20512;DHT22;10414;52.074;5.126;2022-10-22T06:34:24;14.40;99.90
20512;DHT22;10414;52.074;5.126;2022-10-22T06:36:51;14.40;99.90
20512;DHT22;10414;52.074;5.126;2022-10-22T06:39:17;14.40;99.90
20512;DHT22;10414;52.074;5.126;2022-10-22T06:41:44;14.40;99.90
20512;DHT22;10414;52.074;5.126;2022-10-22T06:44:13;14.60;99.90
20512;DHT22;10414;52.074;5.126;2022-10-22T06:46:40;14.60;99.90
20512;DHT22;10414;52.074;5.126;2022-10-22T06:49:12;14.70;99.90
20512;DHT22;10414;52.074;5.126;2022-10-22T06:51:39;14.70;99.90
20512;DHT22;10414;52.074;5.126;2022-10-22T06:54:06;14.80;99.90
20512;DHT22;10414;52.074;5.126;2022-10-22T06:56:33;14.80;99.90
20512;DHT22;10414;52.074;5.126;2022-10-22T06:58:59;14.80;99.90
20512;DHT22;10414;52.074;5.126;2022-10-22T07:01:28;14.80;99.90
20512;DHT22;10414;52.074;5.126;2022-10-22T07:03:55;15.00;99.90
20512;DHT22;10414;52.074;5.126;2022-10-22T07:06:25;15.10;99.90
20512;DHT22;10414;52.074;5.126;2022-10-22T07:08:53;15.20;99.90
20512;DHT22;10414;52.074;5.126;2022-10-22T07:11:22;15.40;99.90
20512;DHT22;10414;52.074;5.126;2022-10-22T07:13:50;15.80;99.90
20512;DHT22;10414;52.074;5.126;2022-10-22T07:16:17;15.90;99.90
20512;DHT22;10414;52.074;5.126;2022-10-22T07:18:44;16.20;99.90
20512;DHT22;10414;52.074;5.126;2022-10-22T07:21:12;17.10;99.90
20512;DHT22;10414;52.074;5.126;2022-10-22T07:23:40;18.10;99.90
20512;DHT22;10414;52.074;5.126;2022-10-22T07:26:08;18.80;99.90
20512;DHT22;10414;52.074;5.126;2022-10-22T07:28:37;18.90;99.90
20512;DHT22;10414;52.074;5.126;2022-10-22T07:31:05;19.90;99.90
20512;DHT22;10414;52.074;5.126;2022-10-22T07:33:33;20.50;99.90
20512;DHT22;10414;52.074;5.126;2022-10-22T07:36:02;20.30;99.90
20512;DHT22;10414;52.074;5.126;2022-10-22T07:38:30;18.90;99.90
20512;DHT22;10414;52.074;5.126;2022-10-22T07:40:59;17.90;99.90
20512;DHT22;10414;52.074;5.126;2022-10-22T07:43:26;17.40;99.90
20512;DHT22;10414;52.074;5.126;2022-10-22T07:45:53;16.90;99.90
20512;DHT22;10414;52.074;5.126;2022-10-22T07:48:21;16.70;99.90
20512;DHT22;10414;52.074;5.126;2022-10-22T07:50:48;16.60;99.90
20512;DHT22;10414;52.074;5.126;2022-10-22T07:53:15;16.60;99.90
20512;DHT22;10414;52.074;5.126;2022-10-22T07:55:42;16.50;99.90
20512;DHT22;10414;52.074;5.126;2022-10-22T07:58:10;16.40;99.90
20512;DHT22;10414;52.074;5.126;2022-10-22T08:00:37;16.60;99.90
20512;DHT22;10414;52.074;5.126;2022-10-22T08:03:04;16.70;99.90
20512;DHT22;10414;52.074;5.126;2022-10-22T08:05:31;16.70;99.90
20512;DHT22;10414;52.074;5.126;2022-10-22T08:07:57;16.90;99.90
20512;DHT22;10414;52.074;5.126;2022-10-22T08:10:24;16.90;99.90
20512;DHT22;10414;52.074;5.126;2022-10-22T08:12:51;16.80;99.90
20512;DHT22;10414;52.074;5.126;2022-10-22T08:15:19;16.60;99.90
20512;DHT22;10414;52.074;5.126;2022-10-22T08:17:47;16.60;99.90
20512;DHT22;10414;52.074;5.126;2022-10-22T08:20:15;16.60;99.90
20512;DHT22;10414;52.074;5.126;2022-10-22T08:22:41;16.70;99.90
20512;DHT22;10414;52.074;5.126;2022-10-22T08:25:09;16.80;99.90
20512;DHT22;10414;52.074;5.126;2022-10-22T08:27:37;16.80;99.90
20512;DHT22;10414;52.074;5.126;2022-10-22T08:30:05;16.70;99.90
20512;DHT22;10414;52.074;5.126;2022-10-22T08:32:33;16.60;99.90
20512;DHT22;10414;52.074;5.126;2022-10-22T08:35:00;16.60;99.90
20512;DHT22;10414;52.074;5.126;2022-10-22T08:37:27;16.70;99.90
20512;DHT22;10414;52.074;5.126;2022-10-22T08:39:54;16.60;99.90
20512;DHT22;10414;52.074;5.126;2022-10-22T08:42:42;16.60;99.90
20512;DHT22;10414;52.074;5.126;2022-10-22T08:45:18;16.70;99.90
20512;DHT22;10414;52.074;5.126;2022-10-22T08:48:07;16.60;99.90
20512;DHT22;10414;52.074;5.126;2022-10-22T08:50:39;16.50;99.90
20512;DHT22;10414;52.074;5.126;2022-10-22T08:53:06;16.40;99.90
20512;DHT22;10414;52.074;5.126;2022-10-22T08:55:38;16.60;99.90
20512;DHT22;10414;52.074;5.126;2022-10-22T08:58:13;16.70;99.90
20512;DHT22;10414;52.074;5.126;2022-10-22T09:00:49;16.80;99.90
20512;DHT22;10414;52.074;5.126;2022-10-22T09:03:35;16.90;99.90
20512;DHT22;10414;52.074;5.126;2022-10-22T09:06:09;17.10;99.90
20512;DHT22;10414;52.074;5.126;2022-10-22T09:08:38;17.30;99.90
20512;DHT22;10414;52.074;5.126;2022-10-22T09:11:13;17.70;99.90
20512;DHT22;10414;52.074;5.126;2022-10-22T09:13:43;18.10;99.90
20512;DHT22;10414;52.074;5.126;2022-10-22T09:16:15;18.40;99.90
20512;DHT22;10414;52.074;5.126;2022-10-22T09:18:52;18.80;99.90
20512;DHT22;10414;52.074;5.126;2022-10-22T09:21:27;18.90;99.90
20512;DHT22;10414;52.074;5.126;2022-10-22T09:24:03;18.80;99.90
20512;DHT22;10414;52.074;5.126;2022-10-22T09:26:33;19.20;99.90
20512;DHT22;10414;52.074;5.126;2022-10-22T09:29:02;19.90;99.90
20512;DHT22;10414;52.074;5.126;2022-10-22T09:31:31;20.80;99.90
20512;DHT22;10414;52.074;5.126;2022-10-22T09:34:00;21.70;99.90
20512;DHT22;10414;52.074;5.126;2022-10-22T09:36:32;21.80;99.90
20512;DHT22;10414;52.074;5.126;2022-10-22T09:39:00;21.90;99.90
20512;DHT22;10414;52.074;5.126;2022-10-22T09:41:29;22.00;99.90
20512;DHT22;10414;52.074;5.126;2022-10-22T09:43:57;21.50;99.90
20512;DHT22;10414;52.074;5.126;2022-10-22T09:46:27;20.60;99.90
20512;DHT22;10414;52.074;5.126;2022-10-22T09:49:01;20.20;99.90
20512;DHT22;10414;52.074;5.126;2022-10-22T09:51:39;21.00;99.90
20512;DHT22;10414;52.074;5.126;2022-10-22T09:54:14;21.10;99.90
20512;DHT22;10414;52.074;5.126;2022-10-22T09:56:47;21.60;99.90
20512;DHT22;10414;52.074;5.126;2022-10-22T09:59:17;21.00;99.90
20512;DHT22;10414;52.074;5.126;2022-10-22T10:01:44;20.50;99.90
20512;DHT22;10414;52.074;5.126;2022-10-22T10:04:14;20.20;99.90
20512;DHT22;10414;52.074;5.126;2022-10-22T10:06:42;20.00;99.90
20512;DHT22;10414;52.074;5.126;2022-10-22T10:09:14;20.00;99.90
20512;DHT22;10414;52.074;5.126;2022-10-22T10:11:45;20.50;99.90
20512;DHT22;10414;52.074;5.126;2022-10-22T10:14:19;21.10;99.90
20512;DHT22;10414;52.074;5.126;2022-10-22T10:16:54;20.90;99.90
20512;DHT22;10414;52.074;5.126;2022-10-22T10:19:44;20.60;99.90
20512;DHT22;10414;52.074;5.126;2022-10-22T10:22:30;20.20;99.90
20512;DHT22;10414;52.074;5.126;2022-10-22T10:25:18;19.90;99.90
20512;DHT22;10414;52.074;5.126;2022-10-22T10:27:55;19.50;99.90
20512;DHT22;10414;52.074;5.126;2022-10-22T10:30:24;19.30;99.90
20512;DHT22;10414;52.074;5.126;2022-10-22T10:33:04;19.30;99.90
20512;DHT22;10414;52.074;5.126;2022-10-22T10:35:45;19.40;99.90
20512;DHT22;10414;52.074;5.126;2022-10-22T10:38:31;19.10;99.90
20512;DHT22;10414;52.074;5.126;2022-10-22T10:41:10;19.10;99.90
20512;DHT22;10414;52.074;5.126;2022-10-22T10:43:44;19.20;99.90
20512;DHT22;10414;52.074;5.126;2022-10-22T10:46:20;19.50;99.90
20512;DHT22;10414;52.074;5.126;2022-10-22T10:48:54;20.30;99.90
20512;DHT22;10414;52.074;5.126;2022-10-22T10:51:39;20.70;99.90
20512;DHT22;10414;52.074;5.126;2022-10-22T10:54:32;21.50;99.90
20512;DHT22;10414;52.074;5.126;2022-10-22T10:57:03;20.90;99.90
20512;DHT22;10414;52.074;5.126;2022-10-22T10:59:44;20.70;99.90
20512;DHT22;10414;52.074;5.126;2022-10-22T11:05:25;20.60;99.90
20512;DHT22;10414;52.074;5.126;2022-10-22T11:07:58;20.60;99.90
20512;DHT22;10414;52.074;5.126;2022-10-22T11:10:29;21.50;99.90
20512;DHT22;10414;52.074;5.126;2022-10-22T11:13:00;21.10;99.90
20512;DHT22;10414;52.074;5.126;2022-10-22T11:15:31;20.70;99.90
20512;DHT22;10414;52.074;5.126;2022-10-22T11:18:02;20.30;99.90
20512;DHT22;10414;52.074;5.126;2022-10-22T11:20:40;20.40;99.90
20512;DHT22;10414;52.074;5.126;2022-10-22T11:23:13;20.50;99.90
20512;DHT22;10414;52.074;5.126;2022-10-22T11:25:44;20.30;99.90
20512;DHT22;10414;52.074;5.126;2022-10-22T11:28:15;20.30;99.90
20512;DHT22;10414;52.074;5.126;2022-10-22T11:30:46;20.60;99.90
20512;DHT22;10414;52.074;5.126;2022-10-22T11:33:17;20.60;99.90
20512;DHT22;10414;52.074;5.126;2022-10-22T11:35:45;21.10;99.90
20512;DHT22;10414;52.074;5.126;2022-10-22T11:38:16;21.00;99.90
20512;DHT22;10414;52.074;5.126;2022-10-22T11:40:46;21.00;99.90
20512;DHT22;10414;52.074;5.126;2022-10-22T11:43:26;21.20;99.90
20512;DHT22;10414;52.074;5.126;2022-10-22T11:45:59;21.00;99.90
20512;DHT22;10414;52.074;5.126;2022-10-22T11:48:33;20.60;99.90
20512;DHT22;10414;52.074;5.126;2022-10-22T11:51:01;20.40;99.90
20512;DHT22;10414;52.074;5.126;2022-10-22T11:53:32;19.90;99.90
20512;DHT22;10414;52.074;5.126;2022-10-22T11:56:20;19.70;99.90
20512;DHT22;10414;52.074;5.126;2022-10-22T11:58:48;19.70;99.90
20512;DHT22;10414;52.074;5.126;2022-10-22T12:01:23;19.60;99.90
20512;DHT22;10414;52.074;5.126;2022-10-22T12:03:52;19.50;99.90
20512;DHT22;10414;52.074;5.126;2022-10-22T12:06:21;19.20;99.90
20512;DHT22;10414;52.074;5.126;2022-10-22T12:08:58;18.90;99.90
20512;DHT22;10414;52.074;5.126;2022-10-22T12:11:34;18.90;99.90
20512;DHT22;10414;52.074;5.126;2022-10-22T12:14:16;19.00;99.90
20512;DHT22;10414;52.074;5.126;2022-10-22T12:16:46;19.00;99.90
20512;DHT22;10414;52.074;5.126;2022-10-22T12:19:16;19.20;99.90
20512;DHT22;10414;52.074;5.126;2022-10-22T12:21:47;19.20;99.90
20512;DHT22;10414;52.074;5.126;2022-10-22T12:24:20;19.50;99.90
20512;DHT22;10414;52.074;5.126;2022-10-22T12:26:47;19.80;99.90
20512;DHT22;10414;52.074;5.126;2022-10-22T12:29:19;20.10;99.90
20512;DHT22;10414;52.074;5.126;2022-10-22T12:31:48;20.20;99.90
20512;DHT22;10414;52.074;5.126;2022-10-22T12:34:17;20.30;99.90
20512;DHT22;10414;52.074;5.126;2022-10-22T12:36:48;20.40;99.90
20512;DHT22;10414;52.074;5.126;2022-10-22T12:39:19;20.30;99.90
20512;DHT22;10414;52.074;5.126;2022-10-22T12:41:54;20.30;99.90
20512;DHT22;10414;52.074;5.126;2022-10-22T12:44:21;20.20;99.90
20512;DHT22;10414;52.074;5.126;2022-10-22T12:46:49;19.80;99.90
20512;DHT22;10414;52.074;5.126;2022-10-22T12:49:18;19.50;99.90
20512;DHT22;10414;52.074;5.126;2022-10-22T12:51:46;19.40;99.90
20512;DHT22;10414;52.074;5.126;2022-10-22T12:54:22;19.40;99.90
20512;DHT22;10414;52.074;5.126;2022-10-22T12:56:50;19.50;99.90
20512;DHT22;10414;52.074;5.126;2022-10-22T12:59:21;19.50;99.90
20512;DHT22;10414;52.074;5.126;2022-10-22T13:01:49;19.50;99.90
20512;DHT22;10414;52.074;5.126;2022-10-22T13:04:30;19.50;99.90
20512;DHT22;10414;52.074;5.126;2022-10-22T13:07:14;19.20;99.90
20512;DHT22;10414;52.074;5.126;2022-10-22T13:09:45;19.00;99.90
20512;DHT22;10414;52.074;5.126;2022-10-22T13:12:12;19.00;99.90
20512;DHT22;10414;52.074;5.126;2022-10-22T13:14:41;19.20;99.90
20512;DHT22;10414;52.074;5.126;2022-10-22T13:17:12;19.20;99.90
20512;DHT22;10414;52.074;5.126;2022-10-22T13:19:45;19.20;99.90
20512;DHT22;10414;52.074;5.126;2022-10-22T13:22:27;19.00;99.90
20512;DHT22;10414;52.074;5.126;2022-10-22T13:24:56;18.80;99.90
20512;DHT22;10414;52.074;5.126;2022-10-22T13:27:25;18.60;99.90
20512;DHT22;10414;52.074;5.126;2022-10-22T13:29:52;18.60;99.90
20512;DHT22;10414;52.074;5.126;2022-10-22T13:32:27;18.50;99.90
20512;DHT22;10414;52.074;5.126;2022-10-22T13:34:56;18.40;99.90
20512;DHT22;10414;52.074;5.126;2022-10-22T13:37:24;18.70;99.90
20512;DHT22;10414;52.074;5.126;2022-10-22T13:39:51;18.90;99.90
20512;DHT22;10414;52.074;5.126;2022-10-22T13:42:19;19.10;99.90
20512;DHT22;10414;52.074;5.126;2022-10-22T13:44:46;19.20;99.90
20512;DHT22;10414;52.074;5.126;2022-10-22T13:47:23;19.10;99.90
20512;DHT22;10414;52.074;5.126;2022-10-22T13:49:50;18.90;99.90
20512;DHT22;10414;52.074;5.126;2022-10-22T13:52:33;18.80;99.90
20512;DHT22;10414;52.074;5.126;2022-10-22T13:55:00;18.90;99.90
20512;DHT22;10414;52.074;5.126;2022-10-22T13:57:28;18.90;99.90
20512;DHT22;10414;52.074;5.126;2022-10-22T13:59:55;18.90;99.90
20512;DHT22;10414;52.074;5.126;2022-10-22T14:02:22;18.80;99.90
20512;DHT22;10414;52.074;5.126;2022-10-22T14:04:49;18.80;99.90
20512;DHT22;10414;52.074;5.126;2022-10-22T14:07:17;18.80;99.90
20512;DHT22;10414;52.074;5.126;2022-10-22T14:09:44;18.70;99.90
20512;DHT22;10414;52.074;5.126;2022-10-22T14:12:12;18.60;99.90
20512;DHT22;10414;52.074;5.126;2022-10-22T14:14:41;18.50;99.90
20512;DHT22;10414;52.074;5.126;2022-10-22T14:17:11;18.50;99.90
20512;DHT22;10414;52.074;5.126;2022-10-22T14:19:41;18.60;99.90
20512;DHT22;10414;52.074;5.126;2022-10-22T14:22:12;18.30;99.90
20512;DHT22;10414;52.074;5.126;2022-10-22T14:24:39;18.30;99.90
20512;DHT22;10414;52.074;5.126;2022-10-22T14:27:09;18.40;99.90
20512;DHT22;10414;52.074;5.126;2022-10-22T14:29:37;18.60;99.90
20512;DHT22;10414;52.074;5.126;2022-10-22T14:32:15;18.70;99.90
20512;DHT22;10414;52.074;5.126;2022-10-22T14:34:44;18.60;99.90
20512;DHT22;10414;52.074;5.126;2022-10-22T14:37:17;18.40;99.90
20512;DHT22;10414;52.074;5.126;2022-10-22T14:39:45;18.30;99.90
20512;DHT22;10414;52.074;5.126;2022-10-22T14:42:17;18.20;99.90
20512;DHT22;10414;52.074;5.126;2022-10-22T14:44:44;18.10;99.90
20512;DHT22;10414;52.074;5.126;2022-10-22T14:47:13;18.20;99.90
20512;DHT22;10414;52.074;5.126;2022-10-22T14:49:40;18.20;99.90
20512;DHT22;10414;52.074;5.126;2022-10-22T14:52:07;18.20;99.90
20512;DHT22;10414;52.074;5.126;2022-10-22T14:54:34;18.30;99.90
20512;DHT22;10414;52.074;5.126;2022-10-22T14:57:01;18.30;99.90
20512;DHT22;10414;52.074;5.126;2022-10-22T14:59:28;18.20;99.90
20512;DHT22;10414;52.074;5.126;2022-10-22T15:01:56;18.10;99.90
20512;DHT22;10414;52.074;5.126;2022-10-22T15:04:24;18.30;99.90
20512;DHT22;10414;52.074;5.126;2022-10-22T15:06:52;18.30;99.90
20512;DHT22;10414;52.074;5.126;2022-10-22T15:09:21;18.30;99.90
20512;DHT22;10414;52.074;5.126;2022-10-22T15:11:48;18.30;99.90
20512;DHT22;10414;52.074;5.126;2022-10-22T15:14:15;18.40;99.90
20512;DHT22;10414;52.074;5.126;2022-10-22T15:16:42;18.40;99.90
20512;DHT22;10414;52.074;5.126;2022-10-22T15:19:09;18.60;99.90
20512;DHT22;10414;52.074;5.126;2022-10-22T15:21:38;18.70;99.90
20512;DHT22;10414;52.074;5.126;2022-10-22T15:24:06;18.50;99.90
20512;DHT22;10414;52.074;5.126;2022-10-22T15:26:33;18.50;99.90
20512;DHT22;10414;52.074;5.126;2022-10-22T15:29:01;18.40;99.90
20512;DHT22;10414;52.074;5.126;2022-10-22T15:31:43;18.20;99.90
20512;DHT22;10414;52.074;5.126;2022-10-22T15:34:10;18.30;99.90
20512;DHT22;10414;52.074;5.126;2022-10-22T15:36:39;18.30;99.90
20512;DHT22;10414;52.074;5.126;2022-10-22T15:39:07;18.20;99.90
20512;DHT22;10414;52.074;5.126;2022-10-22T15:41:34;18.10;99.90
20512;DHT22;10414;52.074;5.126;2022-10-22T15:44:01;18.00;99.90
20512;DHT22;10414;52.074;5.126;2022-10-22T15:46:31;17.70;99.90
20512;DHT22;10414;52.074;5.126;2022-10-22T15:48:58;17.70;99.90
20512;DHT22;10414;52.074;5.126;2022-10-22T15:51:25;17.70;99.90
20512;DHT22;10414;52.074;5.126;2022-10-22T15:53:55;17.70;99.90
20512;DHT22;10414;52.074;5.126;2022-10-22T15:56:23;17.70;99.90